AFL1405 UIII-ULLI
Flight info
| Callsign | AFL1405 |
|---|---|
| Flight time | N/A |
| Altitude | 34000 |
| Route | BOGRA5D BOGRA A815 TUTEK M97 LIBZI R497 LONKA A822 TEPNU R372 ADONI B800 KUMOD/K0839F360 N869 UNISO L870 DIKEP/K0837F380 L870 ROMUM T816 AMDEN P979 BEPOL BEPOL1V |
| Aircraft | A320/M-SDE3FGHIRWY/LB1 |
Departure
| Time | N/A |
|---|---|
| Airport | Irkutsk International Airport (UIII) |
Arrival
| Time | 2026-05-05 08:39 |
|---|---|
| Airport | Pulkovo Airport (ULLI) |
| Time | Latitude | Longitude | Altitude | Speed | Heading |
|---|---|---|---|---|---|
| 2026-05-05 04:06 | 56.22280 | 89.32807 | 34411 ft | 396 kts | 297° |
| 2026-05-05 04:06 | 56.23405 | 89.28285 | 34611 ft | 397 kts | 297° |
| 2026-05-05 04:06 | 56.24533 | 89.23753 | 34806 ft | 398 kts | 297° |
| 2026-05-05 04:06 | 56.25664 | 89.19203 | 34999 ft | 398 kts | 297° |
| 2026-05-05 04:07 | 56.26793 | 89.14640 | 35176 ft | 399 kts | 297° |
| 2026-05-05 04:07 | 56.27919 | 89.10073 | 35363 ft | 400 kts | 297° |
| 2026-05-05 04:07 | 56.29049 | 89.05489 | 35533 ft | 400 kts | 297° |
| 2026-05-05 04:07 | 56.30175 | 89.00902 | 35708 ft | 401 kts | 297° |
| 2026-05-05 04:08 | 56.31303 | 88.96307 | 35885 ft | 402 kts | 296° |
| 2026-05-05 04:08 | 56.32433 | 88.91705 | 36057 ft | 402 kts | 298° |
| 2026-05-05 04:08 | 56.35371 | 88.83184 | 36119 ft | 399 kts | 306° |
| 2026-05-05 04:09 | 56.38480 | 88.74947 | 36142 ft | 396 kts | 306° |
| 2026-05-05 04:09 | 56.41565 | 88.66729 | 36142 ft | 395 kts | 306° |
| 2026-05-05 04:10 | 56.44626 | 88.58531 | 36142 ft | 395 kts | 306° |
| 2026-05-05 04:10 | 56.47690 | 88.50277 | 36141 ft | 395 kts | 306° |
| 2026-05-05 04:11 | 56.50758 | 88.42014 | 36144 ft | 396 kts | 306° |
| 2026-05-05 04:11 | 56.53826 | 88.33731 | 36125 ft | 396 kts | 306° |
| 2026-05-05 04:12 | 56.56881 | 88.25442 | 36113 ft | 395 kts | 305° |
| 2026-05-05 04:12 | 56.59918 | 88.17161 | 36136 ft | 394 kts | 305° |
| 2026-05-05 04:13 | 56.62945 | 88.08879 | 36137 ft | 392 kts | 305° |
| 2026-05-05 04:13 | 56.65960 | 88.00629 | 36135 ft | 392 kts | 305° |
| 2026-05-05 04:14 | 56.68945 | 87.92411 | 36139 ft | 391 kts | 305° |
| 2026-05-05 04:14 | 56.71940 | 87.84145 | 36124 ft | 391 kts | 305° |
| 2026-05-05 04:15 | 56.74927 | 87.75861 | 36116 ft | 391 kts | 305° |
| 2026-05-05 04:15 | 56.77901 | 87.67575 | 36109 ft | 391 kts | 305° |
| 2026-05-05 04:16 | 56.80873 | 87.59294 | 36070 ft | 394 kts | 304° |
| 2026-05-05 04:16 | 56.83885 | 87.50891 | 36085 ft | 396 kts | 304° |
| 2026-05-05 04:17 | 56.86887 | 87.42439 | 36085 ft | 397 kts | 304° |
| 2026-05-05 04:17 | 56.89899 | 87.33949 | 36084 ft | 398 kts | 304° |
| 2026-05-05 04:18 | 56.92913 | 87.25439 | 36082 ft | 398 kts | 304° |
| 2026-05-05 04:18 | 56.95920 | 87.16899 | 36082 ft | 399 kts | 303° |
| 2026-05-05 04:19 | 56.98904 | 87.08397 | 36088 ft | 399 kts | 303° |
| 2026-05-05 04:19 | 57.01907 | 86.99810 | 36066 ft | 399 kts | 303° |
| 2026-05-05 04:20 | 57.04908 | 86.91224 | 36058 ft | 400 kts | 303° |
| 2026-05-05 04:20 | 57.07904 | 86.82600 | 36087 ft | 400 kts | 302° |
| 2026-05-05 04:21 | 57.10901 | 86.73962 | 36089 ft | 400 kts | 302° |
| 2026-05-05 04:21 | 57.13903 | 86.65316 | 36080 ft | 401 kts | 302° |
| 2026-05-05 04:22 | 57.16877 | 86.56698 | 36081 ft | 401 kts | 302° |
| 2026-05-05 04:22 | 57.19854 | 86.48005 | 36077 ft | 401 kts | 302° |
| 2026-05-05 04:23 | 57.22831 | 86.39302 | 36055 ft | 401 kts | 302° |
| 2026-05-05 04:23 | 57.25803 | 86.30594 | 36060 ft | 401 kts | 302° |
| 2026-05-05 04:24 | 57.28766 | 86.21850 | 36063 ft | 401 kts | 301° |
| 2026-05-05 04:25 | 57.33180 | 86.08772 | 36075 ft | 401 kts | 301° |
| 2026-05-05 04:25 | 57.36136 | 85.99987 | 36065 ft | 401 kts | 301° |
| 2026-05-05 04:26 | 57.39084 | 85.91186 | 36055 ft | 401 kts | 301° |
| 2026-05-05 04:26 | 57.42020 | 85.82387 | 36048 ft | 401 kts | 301° |
| 2026-05-05 04:27 | 57.44962 | 85.73573 | 36023 ft | 401 kts | 300° |
| 2026-05-05 04:27 | 57.47878 | 85.64767 | 36019 ft | 402 kts | 300° |
| 2026-05-05 04:28 | 57.50805 | 85.55900 | 36029 ft | 402 kts | 300° |
| 2026-05-05 04:28 | 57.53721 | 85.47018 | 36027 ft | 402 kts | 300° |
| 2026-05-05 04:29 | 57.56635 | 85.38123 | 36028 ft | 402 kts | 300° |
| 2026-05-05 04:29 | 57.59056 | 85.30715 | 36046 ft | 403 kts | 300° |
| 2026-05-05 04:30 | 57.62441 | 85.20325 | 36038 ft | 403 kts | 300° |
| 2026-05-05 04:30 | 57.64875 | 85.12834 | 36021 ft | 402 kts | 299° |
| 2026-05-05 04:31 | 57.67747 | 85.03939 | 36025 ft | 402 kts | 299° |
| 2026-05-05 04:31 | 57.70633 | 84.94966 | 36025 ft | 402 kts | 299° |
| 2026-05-05 04:32 | 57.73507 | 84.85997 | 36018 ft | 402 kts | 299° |
| 2026-05-05 04:32 | 57.76377 | 84.77023 | 36025 ft | 402 kts | 299° |
| 2026-05-05 04:33 | 57.79240 | 84.68026 | 36019 ft | 402 kts | 299° |
| 2026-05-05 04:33 | 57.82095 | 84.59029 | 36034 ft | 402 kts | 298° |
| 2026-05-05 04:34 | 57.84943 | 84.49995 | 36020 ft | 402 kts | 298° |
| 2026-05-05 04:34 | 57.87772 | 84.41004 | 36011 ft | 402 kts | 298° |
| 2026-05-05 04:35 | 57.90621 | 84.31941 | 35999 ft | 403 kts | 298° |
| 2026-05-05 04:35 | 57.93460 | 84.22838 | 36000 ft | 403 kts | 298° |
| 2026-05-05 04:36 | 57.96293 | 84.13718 | 35998 ft | 403 kts | 298° |
| 2026-05-05 04:36 | 57.99128 | 84.04564 | 35994 ft | 403 kts | 298° |
| 2026-05-05 04:37 | 58.01935 | 83.95461 | 35988 ft | 404 kts | 297° |
| 2026-05-05 04:37 | 58.04754 | 83.86288 | 36001 ft | 404 kts | 297° |
| 2026-05-05 04:38 | 58.07574 | 83.77077 | 35969 ft | 406 kts | 297° |
| 2026-05-05 04:38 | 58.10406 | 83.67783 | 35955 ft | 409 kts | 297° |
| 2026-05-05 04:39 | 58.13244 | 83.58444 | 35961 ft | 410 kts | 297° |
| 2026-05-05 04:39 | 58.16088 | 83.49039 | 35958 ft | 411 kts | 297° |
| 2026-05-05 04:40 | 58.18930 | 83.39620 | 35958 ft | 412 kts | 297° |
| 2026-05-05 04:40 | 58.21772 | 83.30161 | 35963 ft | 413 kts | 297° |
| 2026-05-05 04:41 | 58.24605 | 83.20677 | 35967 ft | 413 kts | 297° |
| 2026-05-05 04:41 | 58.27420 | 83.11246 | 35957 ft | 413 kts | 297° |
| 2026-05-05 04:42 | 58.30240 | 83.01735 | 35965 ft | 413 kts | 296° |
| 2026-05-05 04:42 | 58.32796 | 82.91964 | 35958 ft | 411 kts | 287° |
| 2026-05-05 04:43 | 58.34171 | 82.81440 | 35952 ft | 410 kts | 282° |
| 2026-05-05 04:43 | 58.35468 | 82.70861 | 35940 ft | 411 kts | 282° |
| 2026-05-05 04:44 | 58.36763 | 82.60254 | 35942 ft | 411 kts | 282° |
| 2026-05-05 04:44 | 58.38043 | 82.49616 | 35928 ft | 412 kts | 282° |
| 2026-05-05 04:45 | 58.39302 | 82.38963 | 35920 ft | 412 kts | 281° |
| 2026-05-05 04:45 | 58.40561 | 82.28330 | 35921 ft | 413 kts | 282° |
| 2026-05-05 04:46 | 58.41828 | 82.17647 | 35914 ft | 413 kts | 281° |
| 2026-05-05 04:46 | 58.43082 | 82.06913 | 35913 ft | 413 kts | 281° |
| 2026-05-05 04:47 | 58.44316 | 81.96188 | 35910 ft | 413 kts | 281° |
| 2026-05-05 04:47 | 58.45557 | 81.85455 | 35904 ft | 414 kts | 281° |
| 2026-05-05 04:48 | 58.46775 | 81.74768 | 35892 ft | 415 kts | 281° |
| 2026-05-05 04:48 | 58.47989 | 81.63973 | 35891 ft | 415 kts | 281° |
| 2026-05-05 04:49 | 58.49203 | 81.53162 | 35899 ft | 416 kts | 281° |
| 2026-05-05 04:49 | 58.50408 | 81.42307 | 35883 ft | 418 kts | 281° |
| 2026-05-05 04:50 | 58.51611 | 81.31411 | 35883 ft | 419 kts | 281° |
| 2026-05-05 04:50 | 58.52802 | 81.20563 | 35865 ft | 419 kts | 281° |
| 2026-05-05 04:51 | 58.53989 | 81.09614 | 35866 ft | 420 kts | 281° |
| 2026-05-05 04:51 | 58.55154 | 80.98723 | 35866 ft | 420 kts | 281° |
| 2026-05-05 04:52 | 58.56318 | 80.87760 | 35865 ft | 420 kts | 281° |
| 2026-05-05 04:52 | 58.57482 | 80.76791 | 35868 ft | 420 kts | 281° |
| 2026-05-05 04:53 | 58.58632 | 80.65812 | 35860 ft | 420 kts | 281° |
| 2026-05-05 04:53 | 58.59766 | 80.54798 | 35855 ft | 420 kts | 281° |
| 2026-05-05 04:54 | 58.60901 | 80.43789 | 35854 ft | 420 kts | 281° |
| 2026-05-05 04:54 | 58.62018 | 80.32848 | 35858 ft | 420 kts | 281° |
| 2026-05-05 04:55 | 58.63125 | 80.21844 | 35858 ft | 420 kts | 281° |
| 2026-05-05 04:55 | 58.64225 | 80.10818 | 35855 ft | 420 kts | 281° |
| 2026-05-05 04:56 | 58.65312 | 79.99785 | 35871 ft | 420 kts | 281° |
| 2026-05-05 04:56 | 58.66400 | 79.88746 | 35847 ft | 421 kts | 281° |
| 2026-05-05 04:57 | 58.67479 | 79.77691 | 35855 ft | 421 kts | 281° |
| 2026-05-05 04:57 | 58.68599 | 79.66748 | 35851 ft | 419 kts | 285° |
| 2026-05-05 04:58 | 58.70190 | 79.55962 | 35847 ft | 419 kts | 285° |
| 2026-05-05 04:58 | 58.71776 | 79.45158 | 35846 ft | 419 kts | 285° |
| 2026-05-05 04:59 | 58.73352 | 79.34341 | 35845 ft | 419 kts | 285° |
| 2026-05-05 04:59 | 58.74916 | 79.23523 | 35830 ft | 419 kts | 285° |
| 2026-05-05 05:00 | 58.76468 | 79.12701 | 35847 ft | 418 kts | 285° |
| 2026-05-05 05:00 | 58.78001 | 79.01902 | 35849 ft | 418 kts | 285° |
| 2026-05-05 05:01 | 58.79526 | 78.91111 | 35846 ft | 417 kts | 285° |
| 2026-05-05 05:01 | 58.81037 | 78.80388 | 35843 ft | 416 kts | 285° |
| 2026-05-05 05:02 | 58.82547 | 78.69591 | 35840 ft | 416 kts | 285° |
| 2026-05-05 05:02 | 58.84045 | 78.58795 | 35840 ft | 416 kts | 285° |
| 2026-05-05 05:03 | 58.85534 | 78.47976 | 35827 ft | 416 kts | 285° |
| 2026-05-05 05:03 | 58.87015 | 78.37156 | 35827 ft | 416 kts | 285° |
| 2026-05-05 05:04 | 58.88470 | 78.26385 | 35830 ft | 416 kts | 285° |
| 2026-05-05 05:04 | 58.89931 | 78.15557 | 35827 ft | 416 kts | 285° |
| 2026-05-05 05:05 | 58.91384 | 78.04710 | 35826 ft | 416 kts | 284° |
| 2026-05-05 05:05 | 58.92826 | 77.93853 | 35817 ft | 416 kts | 284° |
| 2026-05-05 05:06 | 58.94257 | 77.82986 | 35805 ft | 416 kts | 284° |
| 2026-05-05 05:06 | 58.95684 | 77.72118 | 35814 ft | 416 kts | 284° |
| 2026-05-05 05:07 | 58.97089 | 77.61314 | 35819 ft | 416 kts | 284° |
| 2026-05-05 05:07 | 58.98498 | 77.50443 | 35820 ft | 416 kts | 284° |
| 2026-05-05 05:08 | 58.99889 | 77.39546 | 35825 ft | 416 kts | 284° |
| 2026-05-05 05:08 | 59.01283 | 77.28635 | 35822 ft | 416 kts | 284° |
| 2026-05-05 05:09 | 59.02664 | 77.17729 | 35819 ft | 416 kts | 283° |
| 2026-05-05 05:09 | 59.04035 | 77.06791 | 35799 ft | 416 kts | 283° |
| 2026-05-05 05:10 | 59.05382 | 76.95918 | 35798 ft | 416 kts | 283° |
| 2026-05-05 05:10 | 59.06727 | 76.84988 | 35806 ft | 416 kts | 283° |
| 2026-05-05 05:11 | 59.08064 | 76.74048 | 35803 ft | 416 kts | 283° |
| 2026-05-05 05:11 | 59.09402 | 76.63097 | 35801 ft | 416 kts | 283° |
| 2026-05-05 05:12 | 59.10725 | 76.52136 | 35800 ft | 416 kts | 283° |
| 2026-05-05 05:12 | 59.12038 | 76.41156 | 35807 ft | 416 kts | 283° |
| 2026-05-05 05:13 | 59.13356 | 76.30181 | 35799 ft | 416 kts | 283° |
| 2026-05-05 05:13 | 59.14655 | 76.19276 | 35802 ft | 416 kts | 283° |
| 2026-05-05 05:14 | 59.15945 | 76.08273 | 35825 ft | 416 kts | 282° |
| 2026-05-05 05:14 | 59.17220 | 75.97284 | 35815 ft | 416 kts | 282° |
| 2026-05-05 05:15 | 59.18499 | 75.86289 | 35805 ft | 416 kts | 282° |
| 2026-05-05 05:15 | 59.19766 | 75.75273 | 35795 ft | 416 kts | 282° |
| 2026-05-05 05:16 | 59.21005 | 75.64326 | 35807 ft | 415 kts | 282° |
| 2026-05-05 05:16 | 59.22238 | 75.53312 | 35802 ft | 415 kts | 282° |
| 2026-05-05 05:17 | 59.23466 | 75.42297 | 35810 ft | 415 kts | 282° |
| 2026-05-05 05:17 | 59.24491 | 75.33049 | 35818 ft | 415 kts | 282° |
| 2026-05-05 05:18 | 59.25702 | 75.22029 | 35812 ft | 415 kts | 282° |
| 2026-05-05 05:18 | 59.26898 | 75.11058 | 35819 ft | 415 kts | 282° |
| 2026-05-05 05:19 | 59.28092 | 75.00036 | 35801 ft | 414 kts | 281° |
| 2026-05-05 05:19 | 59.29279 | 74.89007 | 35801 ft | 414 kts | 281° |
| 2026-05-05 05:20 | 59.30444 | 74.77984 | 35833 ft | 414 kts | 281° |
| 2026-05-05 05:20 | 59.31607 | 74.66956 | 35829 ft | 414 kts | 281° |
| 2026-05-05 05:21 | 59.32756 | 74.55904 | 35830 ft | 414 kts | 281° |
| 2026-05-05 05:21 | 59.34477 | 74.45174 | 35825 ft | 415 kts | 293° |
| 2026-05-05 05:22 | 59.36907 | 74.34885 | 35818 ft | 415 kts | 293° |
| 2026-05-05 05:22 | 59.39303 | 74.24575 | 35808 ft | 415 kts | 292° |
| 2026-05-05 05:23 | 59.41665 | 74.14299 | 35811 ft | 415 kts | 292° |
| 2026-05-05 05:23 | 59.44038 | 74.03941 | 35816 ft | 416 kts | 292° |
| 2026-05-05 05:24 | 59.46408 | 73.93580 | 35824 ft | 416 kts | 292° |
| 2026-05-05 05:24 | 59.48777 | 73.83198 | 35842 ft | 416 kts | 292° |
| 2026-05-05 05:25 | 59.51127 | 73.72805 | 35838 ft | 416 kts | 292° |
| 2026-05-05 05:25 | 59.53474 | 73.62392 | 35838 ft | 416 kts | 292° |
| 2026-05-05 05:26 | 59.55813 | 73.51976 | 35824 ft | 416 kts | 291° |
| 2026-05-05 05:26 | 59.58130 | 73.41604 | 35826 ft | 416 kts | 292° |
| 2026-05-05 05:27 | 59.60454 | 73.31136 | 35835 ft | 416 kts | 291° |
| 2026-05-05 05:27 | 59.63927 | 73.15420 | 35835 ft | 416 kts | 291° |
| 2026-05-05 05:28 | 59.66229 | 73.04931 | 35871 ft | 416 kts | 291° |
| 2026-05-05 05:28 | 59.68501 | 72.94501 | 35865 ft | 416 kts | 291° |
| 2026-05-05 05:29 | 59.70789 | 72.83983 | 35856 ft | 416 kts | 291° |
| 2026-05-05 05:29 | 59.73072 | 72.73466 | 35850 ft | 416 kts | 291° |
| 2026-05-05 05:30 | 59.75342 | 72.62931 | 35836 ft | 416 kts | 291° |
| 2026-05-05 05:30 | 59.77601 | 72.52368 | 35838 ft | 416 kts | 291° |
| 2026-05-05 05:31 | 59.79844 | 72.41783 | 35840 ft | 416 kts | 291° |
| 2026-05-05 05:31 | 59.82085 | 72.31185 | 35842 ft | 416 kts | 291° |
| 2026-05-05 05:32 | 59.84325 | 72.20580 | 35866 ft | 416 kts | 291° |
| 2026-05-05 05:32 | 59.86551 | 72.09962 | 35855 ft | 416 kts | 290° |
| 2026-05-05 05:33 | 59.88768 | 71.99312 | 35855 ft | 416 kts | 290° |
| 2026-05-05 05:33 | 59.90972 | 71.88641 | 35841 ft | 416 kts | 290° |
| 2026-05-05 05:34 | 59.93164 | 71.78042 | 35836 ft | 416 kts | 290° |
| 2026-05-05 05:34 | 59.95365 | 71.67355 | 35842 ft | 417 kts | 290° |
| 2026-05-05 05:35 | 59.97552 | 71.56633 | 35846 ft | 417 kts | 290° |
| 2026-05-05 05:35 | 59.99735 | 71.45897 | 35843 ft | 417 kts | 290° |
| 2026-05-05 05:36 | 60.01906 | 71.35144 | 35882 ft | 417 kts | 290° |
| 2026-05-05 05:36 | 60.04075 | 71.24361 | 35876 ft | 417 kts | 290° |
| 2026-05-05 05:37 | 60.06216 | 71.13647 | 35864 ft | 418 kts | 290° |
| 2026-05-05 05:37 | 60.08368 | 71.02832 | 35854 ft | 418 kts | 289° |
| 2026-05-05 05:38 | 60.10509 | 70.92005 | 35849 ft | 418 kts | 289° |
| 2026-05-05 05:38 | 60.12648 | 70.81148 | 35857 ft | 418 kts | 289° |
| 2026-05-05 05:39 | 60.14778 | 70.70272 | 35851 ft | 418 kts | 289° |
| 2026-05-05 05:39 | 60.16895 | 70.59388 | 35851 ft | 419 kts | 289° |
| 2026-05-05 05:40 | 60.18988 | 70.48548 | 35849 ft | 419 kts | 289° |
| 2026-05-05 05:40 | 60.21087 | 70.37598 | 35864 ft | 419 kts | 289° |
| 2026-05-05 05:41 | 60.23186 | 70.26643 | 35854 ft | 420 kts | 289° |
| 2026-05-05 05:41 | 60.25280 | 70.15662 | 35840 ft | 420 kts | 289° |
| 2026-05-05 05:42 | 60.27362 | 70.04653 | 35841 ft | 421 kts | 289° |
| 2026-05-05 05:42 | 60.29436 | 69.93612 | 35842 ft | 421 kts | 289° |
| 2026-05-05 05:43 | 60.31494 | 69.82558 | 35844 ft | 421 kts | 289° |
| 2026-05-05 05:43 | 60.33546 | 69.71479 | 35851 ft | 421 kts | 289° |
| 2026-05-05 05:44 | 60.35589 | 69.60384 | 35853 ft | 421 kts | 289° |
| 2026-05-05 05:44 | 60.37635 | 69.49285 | 35865 ft | 422 kts | 289° |
| 2026-05-05 05:45 | 60.39678 | 69.38198 | 35858 ft | 423 kts | 289° |
| 2026-05-05 05:45 | 60.41719 | 69.27020 | 35837 ft | 423 kts | 288° |
| 2026-05-05 05:46 | 60.43741 | 69.15793 | 35840 ft | 424 kts | 288° |
| 2026-05-05 05:46 | 60.45760 | 69.04555 | 35842 ft | 424 kts | 288° |
| 2026-05-05 05:47 | 60.47758 | 68.93384 | 35844 ft | 425 kts | 288° |
| 2026-05-05 05:47 | 60.49761 | 68.82121 | 35840 ft | 425 kts | 288° |
| 2026-05-05 05:48 | 60.51759 | 68.70821 | 35844 ft | 425 kts | 288° |
| 2026-05-05 05:48 | 60.53749 | 68.59516 | 35854 ft | 425 kts | 288° |
| 2026-05-05 05:49 | 60.55732 | 68.48200 | 35856 ft | 425 kts | 288° |
| 2026-05-05 05:49 | 60.57703 | 68.36881 | 35857 ft | 425 kts | 288° |
| 2026-05-05 05:50 | 60.59659 | 68.25533 | 35865 ft | 425 kts | 288° |
| 2026-05-05 05:50 | 60.61598 | 68.14250 | 35865 ft | 425 kts | 288° |
| 2026-05-05 05:51 | 60.63542 | 68.02878 | 35867 ft | 425 kts | 288° |
| 2026-05-05 05:51 | 60.65472 | 67.91502 | 35878 ft | 425 kts | 288° |
| 2026-05-05 05:52 | 60.67397 | 67.80091 | 35876 ft | 425 kts | 287° |
| 2026-05-05 05:52 | 60.69306 | 67.68660 | 35895 ft | 425 kts | 287° |
| 2026-05-05 05:53 | 60.71189 | 67.57291 | 35881 ft | 425 kts | 287° |
| 2026-05-05 05:53 | 60.73086 | 67.45812 | 35881 ft | 426 kts | 287° |
| 2026-05-05 05:54 | 60.74967 | 67.34317 | 35886 ft | 426 kts | 287° |
| 2026-05-05 05:54 | 60.76830 | 67.22808 | 35889 ft | 426 kts | 287° |
| 2026-05-05 05:55 | 60.78676 | 67.11340 | 35894 ft | 426 kts | 287° |
| 2026-05-05 05:55 | 60.80533 | 66.99797 | 35893 ft | 426 kts | 287° |
| 2026-05-05 05:56 | 60.82380 | 66.88239 | 35900 ft | 426 kts | 287° |
| 2026-05-05 05:56 | 60.84209 | 66.76662 | 35909 ft | 427 kts | 287° |
| 2026-05-05 05:57 | 60.86026 | 66.65053 | 35904 ft | 427 kts | 287° |
| 2026-05-05 05:57 | 60.87821 | 66.53497 | 35904 ft | 427 kts | 287° |
| 2026-05-05 05:58 | 60.89623 | 66.41864 | 35902 ft | 427 kts | 287° |
| 2026-05-05 05:58 | 60.91417 | 66.30227 | 35900 ft | 427 kts | 287° |
| 2026-05-05 05:59 | 60.93199 | 66.18561 | 35912 ft | 427 kts | 287° |
| 2026-05-05 05:59 | 60.94972 | 66.06882 | 35910 ft | 427 kts | 286° |
| 2026-05-05 06:00 | 60.96731 | 65.95181 | 35910 ft | 427 kts | 287° |
| 2026-05-05 06:00 | 60.98495 | 65.83485 | 35924 ft | 427 kts | 287° |
| 2026-05-05 06:01 | 61.00243 | 65.71799 | 35921 ft | 427 kts | 287° |
| 2026-05-05 06:01 | 61.01960 | 65.60167 | 35920 ft | 426 kts | 287° |
| 2026-05-05 06:02 | 61.03678 | 65.48463 | 35929 ft | 426 kts | 287° |
| 2026-05-05 06:02 | 61.05389 | 65.36740 | 35927 ft | 426 kts | 287° |
| 2026-05-05 06:03 | 61.06800 | 65.26988 | 35928 ft | 426 kts | 287° |
| 2026-05-05 06:03 | 61.08498 | 65.15249 | 35921 ft | 426 kts | 287° |
| 2026-05-05 06:04 | 61.10186 | 65.03511 | 35924 ft | 426 kts | 286° |
| 2026-05-05 06:04 | 61.11858 | 64.91748 | 35933 ft | 426 kts | 286° |
| 2026-05-05 06:05 | 61.13506 | 64.79992 | 35935 ft | 425 kts | 286° |
| 2026-05-05 06:05 | 61.15147 | 64.68267 | 35940 ft | 424 kts | 286° |
| 2026-05-05 06:06 | 61.16778 | 64.56548 | 35943 ft | 423 kts | 286° |
| 2026-05-05 06:06 | 61.18402 | 64.44817 | 35935 ft | 423 kts | 286° |
| 2026-05-05 06:07 | 61.20016 | 64.33094 | 35936 ft | 423 kts | 286° |
| 2026-05-05 06:07 | 61.21607 | 64.21430 | 35934 ft | 423 kts | 285° |
| 2026-05-05 06:08 | 61.23202 | 64.09680 | 35935 ft | 423 kts | 285° |
| 2026-05-05 06:08 | 61.24790 | 63.97919 | 35939 ft | 423 kts | 285° |
| 2026-05-05 06:09 | 61.26365 | 63.86157 | 35937 ft | 423 kts | 285° |
| 2026-05-05 06:09 | 61.27924 | 63.74362 | 35941 ft | 422 kts | 285° |
| 2026-05-05 06:10 | 61.29328 | 63.62516 | 35935 ft | 422 kts | 280° |
| 2026-05-05 06:10 | 61.30323 | 63.50540 | 35932 ft | 422 kts | 280° |
| 2026-05-05 06:11 | 61.31312 | 63.38488 | 35932 ft | 422 kts | 280° |
| 2026-05-05 06:11 | 61.32297 | 63.26417 | 35934 ft | 422 kts | 280° |
| 2026-05-05 06:12 | 61.33267 | 63.14443 | 35912 ft | 422 kts | 280° |
| 2026-05-05 06:12 | 61.34232 | 63.02361 | 35915 ft | 423 kts | 280° |
| 2026-05-05 06:13 | 61.35189 | 62.90262 | 35938 ft | 423 kts | 280° |
| 2026-05-05 06:13 | 61.36131 | 62.78224 | 35936 ft | 423 kts | 279° |
| 2026-05-05 06:14 | 61.37061 | 62.66123 | 35938 ft | 423 kts | 279° |
| 2026-05-05 06:14 | 61.38001 | 62.54025 | 35940 ft | 423 kts | 279° |
| 2026-05-05 06:15 | 61.38930 | 62.41916 | 35938 ft | 423 kts | 279° |
| 2026-05-05 06:15 | 61.39854 | 62.29798 | 35924 ft | 423 kts | 279° |
| 2026-05-05 06:16 | 61.40767 | 62.17666 | 35929 ft | 423 kts | 279° |
| 2026-05-05 06:16 | 61.41668 | 62.05531 | 35927 ft | 423 kts | 279° |
| 2026-05-05 06:17 | 61.42553 | 61.93380 | 35927 ft | 423 kts | 279° |
| 2026-05-05 06:17 | 61.43425 | 61.81194 | 35950 ft | 423 kts | 279° |
| 2026-05-05 06:18 | 61.44281 | 61.69092 | 35954 ft | 423 kts | 279° |
| 2026-05-05 06:18 | 61.45133 | 61.56920 | 35953 ft | 422 kts | 279° |
| 2026-05-05 06:19 | 61.45973 | 61.44776 | 35949 ft | 422 kts | 279° |
| 2026-05-05 06:19 | 61.46803 | 61.32629 | 35932 ft | 422 kts | 279° |
| 2026-05-05 06:20 | 61.47617 | 61.20469 | 35930 ft | 422 kts | 278° |
| 2026-05-05 06:20 | 61.48433 | 61.08305 | 35931 ft | 422 kts | 279° |
| 2026-05-05 06:21 | 61.49248 | 60.96123 | 35931 ft | 422 kts | 278° |
| 2026-05-05 06:21 | 61.50047 | 60.83929 | 35924 ft | 422 kts | 278° |
| 2026-05-05 06:22 | 61.50829 | 60.71726 | 35930 ft | 422 kts | 278° |
| 2026-05-05 06:22 | 61.51596 | 60.59535 | 35952 ft | 422 kts | 278° |
| 2026-05-05 06:23 | 61.52358 | 60.47348 | 35919 ft | 421 kts | 278° |
| 2026-05-05 06:23 | 61.53111 | 60.35238 | 35915 ft | 422 kts | 278° |
| 2026-05-05 06:24 | 61.53850 | 60.23033 | 35914 ft | 422 kts | 278° |
| 2026-05-05 06:24 | 61.54575 | 60.10831 | 35918 ft | 422 kts | 278° |
| 2026-05-05 06:25 | 61.55285 | 59.98608 | 35910 ft | 422 kts | 278° |
| 2026-05-05 06:25 | 61.56000 | 59.86382 | 35912 ft | 422 kts | 278° |
| 2026-05-05 06:26 | 61.56714 | 59.74175 | 35906 ft | 422 kts | 278° |
| 2026-05-05 06:26 | 61.57413 | 59.61929 | 35906 ft | 422 kts | 278° |
| 2026-05-05 06:27 | 61.58429 | 59.43574 | 36378 ft | 421 kts | 277° |
| 2026-05-05 06:27 | 61.58755 | 59.37544 | 36589 ft | 421 kts | 277° |
| 2026-05-05 06:28 | 61.59083 | 59.31442 | 36791 ft | 421 kts | 277° |
| 2026-05-05 06:28 | 61.59409 | 59.25323 | 36976 ft | 421 kts | 277° |
| 2026-05-05 06:28 | 61.59736 | 59.19205 | 37166 ft | 421 kts | 277° |
| 2026-05-05 06:28 | 61.60061 | 59.13075 | 37330 ft | 422 kts | 277° |
| 2026-05-05 06:29 | 61.60381 | 59.06936 | 37500 ft | 422 kts | 277° |
| 2026-05-05 06:29 | 61.60698 | 59.00804 | 37690 ft | 422 kts | 277° |
| 2026-05-05 06:29 | 61.61012 | 58.94658 | 37863 ft | 423 kts | 277° |
| 2026-05-05 06:30 | 61.61634 | 58.82352 | 37897 ft | 423 kts | 277° |
| 2026-05-05 06:30 | 61.62248 | 58.70114 | 37891 ft | 424 kts | 277° |
| 2026-05-05 06:31 | 61.62855 | 58.57775 | 37888 ft | 425 kts | 276° |
| 2026-05-05 06:31 | 61.62956 | 58.55685 | 37887 ft | 425 kts | 276° |
| 2026-05-05 06:32 | 61.64749 | 58.21182 | 37887 ft | 425 kts | 277° |
| 2026-05-05 06:33 | 61.65428 | 58.08828 | 37882 ft | 425 kts | 277° |
| 2026-05-05 06:33 | 61.66069 | 57.96440 | 37886 ft | 425 kts | 277° |
| 2026-05-05 06:34 | 61.66690 | 57.84068 | 37863 ft | 425 kts | 277° |
| 2026-05-05 06:34 | 61.67310 | 57.71658 | 37868 ft | 426 kts | 276° |
| 2026-05-05 06:35 | 61.67910 | 57.59324 | 37872 ft | 426 kts | 276° |
| 2026-05-05 06:35 | 61.68511 | 57.46893 | 37875 ft | 426 kts | 276° |
| 2026-05-05 06:36 | 61.69101 | 57.34449 | 37875 ft | 427 kts | 276° |
| 2026-05-05 06:36 | 61.69679 | 57.22014 | 37903 ft | 426 kts | 276° |
| 2026-05-05 06:37 | 61.70240 | 57.09578 | 37899 ft | 426 kts | 276° |
| 2026-05-05 06:37 | 61.70786 | 56.97164 | 37880 ft | 425 kts | 276° |
| 2026-05-05 06:38 | 61.71326 | 56.84766 | 37882 ft | 424 kts | 276° |
| 2026-05-05 06:38 | 61.71857 | 56.72348 | 37887 ft | 424 kts | 276° |
| 2026-05-05 06:39 | 61.72374 | 56.59974 | 37881 ft | 423 kts | 275° |
| 2026-05-05 06:39 | 61.72885 | 56.47605 | 37876 ft | 423 kts | 275° |
| 2026-05-05 06:40 | 61.73373 | 56.35294 | 37874 ft | 423 kts | 275° |
| 2026-05-05 06:40 | 61.73858 | 56.22912 | 37869 ft | 423 kts | 275° |
| 2026-05-05 06:41 | 61.74330 | 56.10531 | 37887 ft | 423 kts | 275° |
| 2026-05-05 06:41 | 61.74786 | 55.98169 | 37871 ft | 422 kts | 275° |
| 2026-05-05 06:42 | 61.75229 | 55.85826 | 37859 ft | 421 kts | 274° |
| 2026-05-05 06:42 | 61.75661 | 55.73576 | 37859 ft | 421 kts | 274° |
| 2026-05-05 06:43 | 61.76092 | 55.61250 | 37855 ft | 420 kts | 274° |
| 2026-05-05 06:43 | 61.76504 | 55.48915 | 37843 ft | 420 kts | 274° |
| 2026-05-05 06:44 | 61.76904 | 55.36604 | 37841 ft | 420 kts | 274° |
| 2026-05-05 06:44 | 61.77291 | 55.24290 | 37840 ft | 420 kts | 274° |
| 2026-05-05 06:45 | 61.77674 | 55.12047 | 37810 ft | 420 kts | 274° |
| 2026-05-05 06:45 | 61.78043 | 54.99715 | 37839 ft | 420 kts | 273° |
| 2026-05-05 06:46 | 61.78395 | 54.87389 | 37837 ft | 420 kts | 273° |
| 2026-05-05 06:46 | 61.78735 | 54.75085 | 37830 ft | 419 kts | 273° |
| 2026-05-05 06:47 | 61.79086 | 54.62777 | 37827 ft | 419 kts | 273° |
| 2026-05-05 06:47 | 61.79444 | 54.50486 | 37818 ft | 419 kts | 273° |
| 2026-05-05 06:48 | 61.79795 | 54.38197 | 37815 ft | 419 kts | 273° |
| 2026-05-05 06:48 | 61.80129 | 54.25907 | 37814 ft | 419 kts | 273° |
| 2026-05-05 06:49 | 61.80442 | 54.13606 | 37791 ft | 418 kts | 273° |
| 2026-05-05 06:49 | 61.80753 | 54.01397 | 37794 ft | 418 kts | 273° |
| 2026-05-05 06:50 | 61.81061 | 53.89108 | 37821 ft | 417 kts | 272° |
| 2026-05-05 06:50 | 61.81345 | 53.76863 | 37813 ft | 416 kts | 272° |
| 2026-05-05 06:51 | 61.81620 | 53.64638 | 37788 ft | 416 kts | 272° |
| 2026-05-05 06:51 | 61.81879 | 53.52426 | 37784 ft | 415 kts | 272° |
| 2026-05-05 06:52 | 61.82126 | 53.40211 | 37779 ft | 415 kts | 272° |
| 2026-05-05 06:52 | 61.82382 | 53.28012 | 37757 ft | 415 kts | 272° |
| 2026-05-05 06:53 | 61.82626 | 53.15889 | 37752 ft | 415 kts | 271° |
| 2026-05-05 06:53 | 61.82858 | 53.03677 | 37752 ft | 415 kts | 271° |
| 2026-05-05 06:54 | 61.83078 | 52.91491 | 37734 ft | 414 kts | 271° |
| 2026-05-05 06:54 | 61.83291 | 52.79295 | 37738 ft | 414 kts | 271° |
| 2026-05-05 06:55 | 61.83493 | 52.67083 | 37728 ft | 415 kts | 271° |
| 2026-05-05 06:55 | 61.83675 | 52.54888 | 37714 ft | 415 kts | 271° |
| 2026-05-05 06:56 | 61.83850 | 52.42688 | 37710 ft | 415 kts | 270° |
| 2026-05-05 06:56 | 61.84017 | 52.30549 | 37667 ft | 415 kts | 270° |
| 2026-05-05 06:57 | 61.84124 | 52.18317 | 37665 ft | 416 kts | 269° |
| 2026-05-05 06:57 | 61.84149 | 52.06052 | 37666 ft | 417 kts | 269° |
| 2026-05-05 06:58 | 61.84156 | 51.93774 | 37670 ft | 417 kts | 269° |
| 2026-05-05 06:58 | 61.84171 | 51.81487 | 37660 ft | 417 kts | 269° |
| 2026-05-05 06:59 | 61.84182 | 51.69193 | 37665 ft | 417 kts | 269° |
| 2026-05-05 06:59 | 61.84183 | 51.56899 | 37693 ft | 417 kts | 269° |
| 2026-05-05 07:00 | 61.84175 | 51.44640 | 37645 ft | 416 kts | 269° |
| 2026-05-05 07:00 | 61.84162 | 51.34457 | 37651 ft | 416 kts | 269° |
| 2026-05-05 07:01 | 61.84129 | 51.20196 | 37660 ft | 416 kts | 269° |
| 2026-05-05 07:01 | 61.84079 | 51.07938 | 37663 ft | 417 kts | 268° |
| 2026-05-05 07:02 | 61.84017 | 50.95666 | 37661 ft | 417 kts | 268° |
| 2026-05-05 07:02 | 61.83960 | 50.85398 | 37663 ft | 417 kts | 268° |
| 2026-05-05 07:03 | 61.83886 | 50.73207 | 37662 ft | 417 kts | 268° |
| 2026-05-05 07:03 | 61.83804 | 50.60949 | 37639 ft | 416 kts | 268° |
| 2026-05-05 07:04 | 61.83710 | 50.48682 | 37661 ft | 416 kts | 268° |
| 2026-05-05 07:04 | 61.83600 | 50.36421 | 37658 ft | 416 kts | 268° |
| 2026-05-05 07:05 | 61.83480 | 50.24144 | 37654 ft | 416 kts | 268° |
| 2026-05-05 07:05 | 61.83353 | 50.11973 | 37643 ft | 416 kts | 268° |
| 2026-05-05 07:06 | 61.83213 | 49.99736 | 37632 ft | 416 kts | 267° |
| 2026-05-05 07:06 | 61.83056 | 49.87502 | 37628 ft | 416 kts | 267° |
| 2026-05-05 07:07 | 61.82885 | 49.75268 | 37628 ft | 416 kts | 267° |
| 2026-05-05 07:07 | 61.82781 | 49.63037 | 37609 ft | 416 kts | 269° |
| 2026-05-05 07:08 | 61.82770 | 49.50878 | 37612 ft | 415 kts | 269° |
| 2026-05-05 07:08 | 61.82748 | 49.38659 | 37657 ft | 415 kts | 268° |
| 2026-05-05 07:09 | 61.82651 | 49.26453 | 37644 ft | 415 kts | 268° |
| 2026-05-05 07:09 | 61.82483 | 49.14260 | 37628 ft | 414 kts | 267° |
| 2026-05-05 07:10 | 61.82305 | 49.02063 | 37626 ft | 415 kts | 267° |
| 2026-05-05 07:10 | 61.82129 | 48.89872 | 37627 ft | 415 kts | 267° |
| 2026-05-05 07:11 | 61.81945 | 48.77680 | 37617 ft | 414 kts | 267° |
| 2026-05-05 07:11 | 61.81746 | 48.65502 | 37601 ft | 414 kts | 267° |
| 2026-05-05 07:12 | 61.81541 | 48.53329 | 37607 ft | 414 kts | 267° |
| 2026-05-05 07:12 | 61.81325 | 48.41168 | 37611 ft | 414 kts | 266° |
| 2026-05-05 07:13 | 61.81092 | 48.29081 | 37604 ft | 413 kts | 266° |
| 2026-05-05 07:13 | 61.80853 | 48.16936 | 37628 ft | 413 kts | 266° |
| 2026-05-05 07:14 | 61.80605 | 48.04790 | 37614 ft | 413 kts | 266° |
| 2026-05-05 07:14 | 61.80341 | 47.92637 | 37611 ft | 413 kts | 266° |
| 2026-05-05 07:15 | 61.80068 | 47.80498 | 37597 ft | 413 kts | 266° |
| 2026-05-05 07:15 | 61.79785 | 47.68357 | 37597 ft | 414 kts | 266° |
| 2026-05-05 07:16 | 61.79491 | 47.56200 | 37596 ft | 414 kts | 266° |
| 2026-05-05 07:16 | 61.79176 | 47.44052 | 37597 ft | 414 kts | 265° |
| 2026-05-05 07:17 | 61.78862 | 47.31891 | 37591 ft | 414 kts | 266° |
| 2026-05-05 07:17 | 61.78561 | 47.19737 | 37593 ft | 414 kts | 266° |
| 2026-05-05 07:18 | 61.78249 | 47.07654 | 37596 ft | 414 kts | 265° |
| 2026-05-05 07:18 | 61.77860 | 46.95492 | 37594 ft | 414 kts | 265° |
| 2026-05-05 07:19 | 61.77422 | 46.83350 | 37568 ft | 414 kts | 265° |
| 2026-05-05 07:19 | 61.76980 | 46.71200 | 37572 ft | 415 kts | 265° |
| 2026-05-05 07:20 | 61.76536 | 46.59037 | 37573 ft | 415 kts | 265° |
| 2026-05-05 07:20 | 61.76086 | 46.46871 | 37581 ft | 415 kts | 264° |
| 2026-05-05 07:21 | 61.75628 | 46.34795 | 37578 ft | 415 kts | 264° |
| 2026-05-05 07:21 | 61.75151 | 46.22561 | 37579 ft | 415 kts | 264° |
| 2026-05-05 07:22 | 61.74667 | 46.10479 | 37583 ft | 416 kts | 264° |
| 2026-05-05 07:22 | 61.74169 | 45.98332 | 37610 ft | 415 kts | 264° |
| 2026-05-05 07:23 | 61.73660 | 45.86183 | 37590 ft | 415 kts | 264° |
| 2026-05-05 07:23 | 61.73142 | 45.74049 | 37588 ft | 415 kts | 264° |
| 2026-05-05 07:24 | 61.72613 | 45.61915 | 37598 ft | 415 kts | 264° |
| 2026-05-05 07:24 | 61.72076 | 45.49879 | 37583 ft | 414 kts | 264° |
| 2026-05-05 07:25 | 61.71519 | 45.37694 | 37582 ft | 414 kts | 263° |
| 2026-05-05 07:25 | 61.70962 | 45.25675 | 37585 ft | 414 kts | 263° |
| 2026-05-05 07:26 | 61.70390 | 45.13582 | 37585 ft | 414 kts | 263° |
| 2026-05-05 07:26 | 61.69817 | 45.01480 | 37567 ft | 414 kts | 264° |
| 2026-05-05 07:27 | 61.69259 | 44.89400 | 37572 ft | 414 kts | 264° |
| 2026-05-05 07:27 | 61.68701 | 44.77312 | 37602 ft | 414 kts | 264° |
| 2026-05-05 07:28 | 61.68131 | 44.65313 | 37595 ft | 414 kts | 263° |
| 2026-05-05 07:28 | 61.67536 | 44.53243 | 37593 ft | 414 kts | 263° |
| 2026-05-05 07:29 | 61.66929 | 44.41172 | 37590 ft | 414 kts | 263° |
| 2026-05-05 07:29 | 61.66312 | 44.29129 | 37587 ft | 414 kts | 263° |
| 2026-05-05 07:30 | 61.65696 | 44.17151 | 37571 ft | 414 kts | 263° |
| 2026-05-05 07:30 | 61.64746 | 43.99093 | 37577 ft | 413 kts | 263° |
| 2026-05-05 07:31 | 61.64077 | 43.87088 | 37581 ft | 413 kts | 263° |
| 2026-05-05 07:31 | 61.63408 | 43.75092 | 37586 ft | 413 kts | 263° |
| 2026-05-05 07:32 | 61.62733 | 43.63093 | 37604 ft | 413 kts | 263° |
| 2026-05-05 07:32 | 61.62063 | 43.51105 | 37598 ft | 413 kts | 263° |
| 2026-05-05 07:33 | 61.61388 | 43.39205 | 37602 ft | 412 kts | 262° |
| 2026-05-05 07:33 | 61.60687 | 43.27245 | 37586 ft | 412 kts | 262° |
| 2026-05-05 07:34 | 61.59977 | 43.15284 | 37584 ft | 412 kts | 262° |
| 2026-05-05 07:34 | 61.59257 | 43.03340 | 37590 ft | 412 kts | 262° |
| 2026-05-05 07:35 | 61.58530 | 42.91397 | 37593 ft | 412 kts | 262° |
| 2026-05-05 07:35 | 61.57794 | 42.79448 | 37593 ft | 412 kts | 262° |
| 2026-05-05 07:36 | 61.57040 | 42.67505 | 37600 ft | 412 kts | 262° |
| 2026-05-05 07:36 | 61.56275 | 42.55570 | 37633 ft | 412 kts | 262° |
| 2026-05-05 07:37 | 61.55501 | 42.43732 | 37622 ft | 412 kts | 262° |
| 2026-05-05 07:37 | 61.54676 | 42.31855 | 37599 ft | 411 kts | 257° |
| 2026-05-05 07:38 | 61.53295 | 42.20208 | 37606 ft | 411 kts | 256° |
| 2026-05-05 07:38 | 61.51892 | 42.08586 | 37604 ft | 411 kts | 256° |
| 2026-05-05 07:39 | 61.50480 | 41.96959 | 37608 ft | 412 kts | 256° |
| 2026-05-05 07:39 | 61.49053 | 41.85344 | 37607 ft | 412 kts | 256° |
| 2026-05-05 07:40 | 61.47614 | 41.73737 | 37619 ft | 412 kts | 256° |
| 2026-05-05 07:40 | 61.46167 | 41.62154 | 37620 ft | 412 kts | 255° |
| 2026-05-05 07:41 | 61.44721 | 41.50635 | 37619 ft | 412 kts | 255° |
| 2026-05-05 07:41 | 61.43254 | 41.39062 | 37626 ft | 412 kts | 255° |
| 2026-05-05 07:42 | 61.41777 | 41.27496 | 37653 ft | 412 kts | 255° |
| 2026-05-05 07:42 | 61.40295 | 41.15938 | 37642 ft | 412 kts | 255° |
| 2026-05-05 07:43 | 61.38796 | 41.04394 | 37643 ft | 412 kts | 255° |
| 2026-05-05 07:43 | 61.37294 | 40.92868 | 37640 ft | 412 kts | 255° |
| 2026-05-05 07:44 | 61.35782 | 40.81331 | 37622 ft | 412 kts | 255° |
| 2026-05-05 07:44 | 61.34266 | 40.69896 | 37631 ft | 412 kts | 254° |
| 2026-05-05 07:45 | 61.32731 | 40.58400 | 37635 ft | 412 kts | 254° |
| 2026-05-05 07:45 | 61.31186 | 40.46905 | 37652 ft | 412 kts | 254° |
| 2026-05-05 07:46 | 61.29628 | 40.35425 | 37654 ft | 412 kts | 254° |
| 2026-05-05 07:46 | 61.28083 | 40.24051 | 37655 ft | 411 kts | 254° |
| 2026-05-05 07:47 | 61.26512 | 40.12607 | 37657 ft | 411 kts | 254° |
| 2026-05-05 07:47 | 61.24932 | 40.01173 | 37666 ft | 411 kts | 254° |
| 2026-05-05 07:48 | 61.23343 | 39.89756 | 37667 ft | 411 kts | 253° |
| 2026-05-05 07:48 | 61.21744 | 39.78355 | 37671 ft | 411 kts | 253° |
| 2026-05-05 07:49 | 61.20407 | 39.68890 | 37670 ft | 411 kts | 253° |
| 2026-05-05 07:49 | 61.18790 | 39.57513 | 37670 ft | 411 kts | 253° |
| 2026-05-05 07:50 | 61.17165 | 39.46149 | 37676 ft | 411 kts | 253° |
| 2026-05-05 07:50 | 61.15539 | 39.34886 | 37668 ft | 411 kts | 253° |
| 2026-05-05 07:51 | 61.13898 | 39.23556 | 37652 ft | 411 kts | 253° |
| 2026-05-05 07:51 | 61.12252 | 39.12226 | 37661 ft | 411 kts | 253° |
| 2026-05-05 07:52 | 61.10596 | 39.00921 | 37666 ft | 411 kts | 253° |
| 2026-05-05 07:52 | 61.08928 | 38.89619 | 37671 ft | 411 kts | 253° |
| 2026-05-05 07:53 | 61.07247 | 38.78334 | 37688 ft | 411 kts | 253° |
| 2026-05-05 07:53 | 61.05557 | 38.67064 | 37684 ft | 410 kts | 253° |
| 2026-05-05 07:54 | 61.03854 | 38.55802 | 37686 ft | 410 kts | 253° |
| 2026-05-05 07:54 | 61.02160 | 38.44638 | 37664 ft | 410 kts | 252° |
| 2026-05-05 07:55 | 61.00444 | 38.33417 | 37681 ft | 410 kts | 252° |
| 2026-05-05 07:55 | 60.98720 | 38.22224 | 37685 ft | 410 kts | 252° |
| 2026-05-05 07:56 | 60.96985 | 38.11036 | 37688 ft | 410 kts | 252° |
| 2026-05-05 07:56 | 60.95241 | 37.99874 | 37688 ft | 410 kts | 252° |
| 2026-05-05 07:57 | 60.93492 | 37.88723 | 37688 ft | 410 kts | 252° |
| 2026-05-05 07:57 | 60.91736 | 37.77572 | 37686 ft | 410 kts | 252° |
| 2026-05-05 07:58 | 60.89968 | 37.66446 | 37669 ft | 410 kts | 252° |
| 2026-05-05 07:58 | 60.88186 | 37.55316 | 37695 ft | 410 kts | 252° |
| 2026-05-05 07:59 | 60.86405 | 37.44252 | 37691 ft | 410 kts | 252° |
| 2026-05-05 07:59 | 60.84595 | 37.33127 | 37696 ft | 410 kts | 252° |
| 2026-05-05 08:00 | 60.82751 | 37.22060 | 37692 ft | 410 kts | 251° |
| 2026-05-05 08:00 | 60.80835 | 37.11030 | 37703 ft | 411 kts | 251° |
| 2026-05-05 08:01 | 60.78905 | 37.00029 | 37702 ft | 411 kts | 251° |
| 2026-05-05 08:01 | 60.76979 | 36.89026 | 37691 ft | 410 kts | 251° |
| 2026-05-05 08:02 | 60.75049 | 36.78055 | 37700 ft | 410 kts | 250° |
| 2026-05-05 08:02 | 60.73108 | 36.67094 | 37704 ft | 410 kts | 250° |
| 2026-05-05 08:03 | 60.71163 | 36.56162 | 37704 ft | 409 kts | 250° |
| 2026-05-05 08:03 | 60.69202 | 36.45227 | 37709 ft | 409 kts | 250° |
| 2026-05-05 08:04 | 60.67255 | 36.34399 | 37759 ft | 409 kts | 250° |
| 2026-05-05 08:04 | 60.65287 | 36.23523 | 37729 ft | 408 kts | 250° |
| 2026-05-05 08:05 | 60.63316 | 36.12706 | 37734 ft | 407 kts | 250° |
| 2026-05-05 08:05 | 60.61339 | 36.01920 | 37735 ft | 406 kts | 250° |
| 2026-05-05 08:06 | 60.59356 | 35.91176 | 37742 ft | 405 kts | 250° |
| 2026-05-05 08:06 | 60.57359 | 35.80425 | 37735 ft | 405 kts | 250° |
| 2026-05-05 08:07 | 60.55369 | 35.69708 | 37735 ft | 405 kts | 250° |
| 2026-05-05 08:07 | 60.53375 | 35.59016 | 37737 ft | 405 kts | 250° |
| 2026-05-05 08:08 | 60.51363 | 35.48343 | 37705 ft | 405 kts | 250° |
| 2026-05-05 08:08 | 60.49347 | 35.37735 | 37714 ft | 406 kts | 250° |
| 2026-05-05 08:09 | 60.47312 | 35.27047 | 37717 ft | 406 kts | 249° |
| 2026-05-05 08:09 | 60.45263 | 35.16365 | 37721 ft | 406 kts | 251° |
| 2026-05-05 08:10 | 60.43787 | 35.05332 | 37733 ft | 406 kts | 256° |
| 2026-05-05 08:10 | 60.42398 | 34.94252 | 37734 ft | 406 kts | 256° |
| 2026-05-05 08:11 | 60.40993 | 34.83163 | 37735 ft | 406 kts | 256° |
| 2026-05-05 08:11 | 60.39587 | 34.72083 | 37708 ft | 407 kts | 255° |
| 2026-05-05 08:12 | 60.38173 | 34.61002 | 37720 ft | 407 kts | 255° |
| 2026-05-05 08:12 | 60.36751 | 34.49978 | 37717 ft | 408 kts | 255° |
| 2026-05-05 08:13 | 60.35313 | 34.38888 | 37720 ft | 408 kts | 255° |
| 2026-05-05 08:13 | 60.33851 | 34.27797 | 37727 ft | 409 kts | 255° |
| 2026-05-05 08:14 | 60.32386 | 34.16685 | 37731 ft | 409 kts | 255° |
| 2026-05-05 08:14 | 60.30922 | 34.05597 | 37753 ft | 409 kts | 255° |
| 2026-05-05 08:15 | 60.30192 | 34.00110 | 37624 ft | 409 kts | 255° |
| 2026-05-05 08:15 | 60.29450 | 33.94577 | 37348 ft | 408 kts | 255° |
| 2026-05-05 08:15 | 60.28706 | 33.89046 | 37073 ft | 408 kts | 255° |
| 2026-05-05 08:15 | 60.27961 | 33.83540 | 36812 ft | 407 kts | 255° |
| 2026-05-05 08:16 | 60.27213 | 33.78044 | 36546 ft | 407 kts | 254° |
| 2026-05-05 08:16 | 60.26459 | 33.72546 | 36287 ft | 406 kts | 254° |
| 2026-05-05 08:16 | 60.25707 | 33.67055 | 36029 ft | 406 kts | 254° |
| 2026-05-05 08:16 | 60.24955 | 33.61561 | 35777 ft | 405 kts | 254° |
| 2026-05-05 08:17 | 60.24205 | 33.56098 | 35523 ft | 405 kts | 254° |
| 2026-05-05 08:17 | 60.23455 | 33.50631 | 35271 ft | 404 kts | 254° |
| 2026-05-05 08:17 | 60.22703 | 33.45184 | 35028 ft | 404 kts | 254° |
| 2026-05-05 08:17 | 60.21957 | 33.39820 | 34789 ft | 403 kts | 254° |
| 2026-05-05 08:18 | 60.21199 | 33.34393 | 34542 ft | 403 kts | 254° |
| 2026-05-05 08:18 | 60.20439 | 33.28976 | 34301 ft | 402 kts | 254° |
| 2026-05-05 08:18 | 60.19675 | 33.23565 | 34045 ft | 402 kts | 254° |
| 2026-05-05 08:18 | 60.18912 | 33.18161 | 33175 ft | 403 kts | 254° |
| 2026-05-05 08:19 | 60.18144 | 33.12700 | 32121 ft | 409 kts | 254° |
| 2026-05-05 08:19 | 60.17375 | 33.07231 | 31346 ft | 405 kts | 254° |
| 2026-05-05 08:19 | 60.16605 | 33.01778 | 30382 ft | 406 kts | 254° |
| 2026-05-05 08:19 | 60.15826 | 32.96297 | 29296 ft | 408 kts | 254° |
| 2026-05-05 08:20 | 60.15040 | 32.90803 | 28070 ft | 411 kts | 254° |
| 2026-05-05 08:20 | 60.14245 | 32.85281 | 26713 ft | 409 kts | 254° |
| 2026-05-05 08:20 | 60.13461 | 32.79809 | 25670 ft | 410 kts | 254° |
| 2026-05-05 08:20 | 60.12667 | 32.74255 | 24821 ft | 415 kts | 254° |
| 2026-05-05 08:21 | 60.11868 | 32.68685 | 24003 ft | 417 kts | 254° |
| 2026-05-05 08:21 | 60.11066 | 32.63115 | 23184 ft | 413 kts | 253° |
| 2026-05-05 08:21 | 60.10271 | 32.57621 | 22249 ft | 408 kts | 253° |
| 2026-05-05 08:21 | 60.09481 | 32.52197 | 21344 ft | 403 kts | 253° |
| 2026-05-05 08:22 | 60.08693 | 32.46828 | 20452 ft | 398 kts | 253° |
| 2026-05-05 08:22 | 60.07909 | 32.41535 | 19600 ft | 394 kts | 253° |
| 2026-05-05 08:22 | 60.07127 | 32.36295 | 18772 ft | 391 kts | 253° |
| 2026-05-05 08:22 | 60.06353 | 32.31100 | 17921 ft | 388 kts | 254° |
| 2026-05-05 08:23 | 60.05570 | 32.25951 | 17008 ft | 386 kts | 253° |
| 2026-05-05 08:23 | 60.04738 | 32.20868 | 16107 ft | 384 kts | 252° |
| 2026-05-05 08:23 | 60.03872 | 32.15825 | 15247 ft | 382 kts | 251° |
| 2026-05-05 08:23 | 60.03004 | 32.10886 | 14435 ft | 380 kts | 251° |
| 2026-05-05 08:24 | 60.02129 | 32.05920 | 13616 ft | 377 kts | 251° |
| 2026-05-05 08:24 | 60.01265 | 32.00983 | 12697 ft | 375 kts | 251° |
| 2026-05-05 08:24 | 60.00425 | 31.96153 | 11850 ft | 358 kts | 252° |
| 2026-05-05 08:24 | 59.99632 | 31.91589 | 10984 ft | 339 kts | 252° |
| 2026-05-05 08:25 | 59.98879 | 31.87237 | 10543 ft | 324 kts | 252° |
| 2026-05-05 08:25 | 59.98164 | 31.83104 | 10419 ft | 306 kts | 252° |
| 2026-05-05 08:25 | 59.97482 | 31.79188 | 10301 ft | 291 kts | 252° |
| 2026-05-05 08:25 | 59.96830 | 31.75458 | 10178 ft | 278 kts | 252° |
| 2026-05-05 08:26 | 59.96203 | 31.71883 | 10053 ft | 266 kts | 252° |
| 2026-05-05 08:26 | 59.95603 | 31.68466 | 9901 ft | 256 kts | 252° |
| 2026-05-05 08:26 | 59.95024 | 31.65151 | 9751 ft | 250 kts | 252° |
| 2026-05-05 08:26 | 59.94455 | 31.61880 | 9698 ft | 250 kts | 252° |
| 2026-05-05 08:27 | 59.93885 | 31.58609 | 9482 ft | 249 kts | 252° |
| 2026-05-05 08:27 | 59.93313 | 31.55348 | 9184 ft | 249 kts | 252° |
| 2026-05-05 08:27 | 59.92742 | 31.52107 | 8895 ft | 246 kts | 252° |
| 2026-05-05 08:27 | 59.92175 | 31.48899 | 8617 ft | 245 kts | 252° |
| 2026-05-05 08:28 | 59.91616 | 31.45741 | 8343 ft | 245 kts | 252° |
| 2026-05-05 08:28 | 59.91047 | 31.42534 | 8059 ft | 244 kts | 252° |
| 2026-05-05 08:28 | 59.90481 | 31.39343 | 7778 ft | 244 kts | 252° |
| 2026-05-05 08:28 | 59.89916 | 31.36150 | 7499 ft | 244 kts | 252° |
| 2026-05-05 08:29 | 59.89349 | 31.32963 | 7213 ft | 244 kts | 251° |
| 2026-05-05 08:29 | 59.88780 | 31.29787 | 6923 ft | 243 kts | 251° |
| 2026-05-05 08:29 | 59.88208 | 31.26609 | 6648 ft | 244 kts | 251° |
| 2026-05-05 08:30 | 59.87068 | 31.20255 | 6086 ft | 244 kts | 251° |
| 2026-05-05 08:30 | 59.86496 | 31.17081 | 5797 ft | 244 kts | 251° |
| 2026-05-05 08:30 | 59.85948 | 31.13898 | 5546 ft | 243 kts | 252° |
| 2026-05-05 08:30 | 59.85449 | 31.10686 | 5375 ft | 242 kts | 253° |
| 2026-05-05 08:31 | 59.84975 | 31.07530 | 5180 ft | 240 kts | 253° |
| 2026-05-05 08:31 | 59.84499 | 31.04343 | 4980 ft | 240 kts | 253° |
| 2026-05-05 08:31 | 59.84022 | 31.01170 | 4766 ft | 239 kts | 253° |
| 2026-05-05 08:31 | 59.83541 | 30.98008 | 4573 ft | 239 kts | 253° |
| 2026-05-05 08:32 | 59.83059 | 30.94852 | 4438 ft | 238 kts | 253° |
| 2026-05-05 08:32 | 59.82577 | 30.91709 | 4310 ft | 237 kts | 252° |
| 2026-05-05 08:32 | 59.82093 | 30.88570 | 4204 ft | 237 kts | 252° |
| 2026-05-05 08:32 | 59.81605 | 30.85436 | 4049 ft | 237 kts | 252° |
| 2026-05-05 08:33 | 59.81118 | 30.82311 | 3870 ft | 234 kts | 252° |
| 2026-05-05 08:33 | 59.80655 | 30.79341 | 3664 ft | 223 kts | 252° |
| 2026-05-05 08:33 | 59.80183 | 30.76485 | 3477 ft | 213 kts | 246° |
| 2026-05-05 08:33 | 59.79519 | 30.73946 | 3357 ft | 203 kts | 242° |
| 2026-05-05 08:34 | 59.78857 | 30.71515 | 3250 ft | 197 kts | 242° |
| 2026-05-05 08:34 | 59.78207 | 30.69129 | 3141 ft | 195 kts | 242° |
| 2026-05-05 08:34 | 59.77564 | 30.66765 | 3000 ft | 194 kts | 242° |
| 2026-05-05 08:34 | 59.77139 | 30.65201 | 2938 ft | 194 kts | 242° |
| 2026-05-05 08:35 | 59.76495 | 30.62829 | 2818 ft | 195 kts | 242° |
| 2026-05-05 08:35 | 59.75851 | 30.60451 | 2698 ft | 196 kts | 242° |
| 2026-05-05 08:35 | 59.75215 | 30.58068 | 2575 ft | 195 kts | 246° |
| 2026-05-05 08:35 | 59.74995 | 30.55438 | 2455 ft | 197 kts | 274° |
| 2026-05-05 08:36 | 59.75349 | 30.52799 | 2319 ft | 198 kts | 282° |
| 2026-05-05 08:36 | 59.75741 | 30.50228 | 2171 ft | 191 kts | 282° |
| 2026-05-05 08:36 | 59.76117 | 30.47747 | 2090 ft | 185 kts | 282° |
| 2026-05-05 08:36 | 59.76485 | 30.45315 | 2005 ft | 183 kts | 282° |
| 2026-05-05 08:37 | 59.76845 | 30.42892 | 1681 ft | 182 kts | 283° |
| 2026-05-05 08:37 | 59.77196 | 30.40552 | 1396 ft | 171 kts | 282° |
| 2026-05-05 08:37 | 59.77522 | 30.38384 | 1166 ft | 155 kts | 282° |
| 2026-05-05 08:37 | 59.77811 | 30.36464 | 976 ft | 136 kts | 283° |
| 2026-05-05 08:38 | 59.78071 | 30.34727 | 802 ft | 129 kts | 282° |
| 2026-05-05 08:38 | 59.78323 | 30.33037 | 630 ft | 128 kts | 282° |
| 2026-05-05 08:38 | 59.78574 | 30.31339 | 418 ft | 129 kts | 282° |
| 2026-05-05 08:38 | 59.78829 | 30.29630 | 237 ft | 129 kts | 288° |
| 2026-05-05 08:39 | 59.79082 | 30.27992 | 101 ft | 125 kts | 283° |
| 2026-05-05 08:39 | 59.79289 | 30.26551 | 83 ft | 86 kts | 285° |
| 2026-05-05 08:39 | 59.79404 | 30.25766 | 83 ft | 33 kts | 287° |
| 2026-05-05 08:39 | 59.79453 | 30.25476 | 85 ft | 15 kts | 309° |
| 2026-05-05 08:40 | 59.79489 | 30.25519 | 87 ft | 6 kts | 73° |
| 2026-05-05 08:40 | 59.79496 | 30.25601 | 83 ft | 6 kts | 79° |
| 2026-05-05 08:40 | 59.79507 | 30.25683 | 83 ft | 10 kts | 75° |
| 2026-05-05 08:40 | 59.79527 | 30.25832 | 88 ft | 11 kts | 75° |
| 2026-05-05 08:41 | 59.79539 | 30.25972 | 87 ft | 10 kts | 86° |
| 2026-05-05 08:41 | 59.79535 | 30.26100 | 84 ft | 9 kts | 105° |
| 2026-05-05 08:41 | 59.79517 | 30.26220 | 84 ft | 9 kts | 107° |
| 2026-05-05 08:41 | 59.79504 | 30.26327 | 82 ft | 7 kts | 86° |
| 2026-05-05 08:42 | 59.79538 | 30.26373 | 81 ft | 7 kts | 16° |
| 2026-05-05 08:42 | 59.79585 | 30.26400 | 85 ft | 7 kts | 16° |
| 2026-05-05 08:42 | 59.79630 | 30.26426 | 83 ft | 6 kts | 16° |
| 2026-05-05 08:42 | 59.79670 | 30.26450 | 87 ft | 6 kts | 17° |
| 2026-05-05 08:43 | 59.79733 | 30.26487 | 81 ft | 13 kts | 16° |
| 2026-05-05 08:43 | 59.79811 | 30.26533 | 81 ft | 7 kts | 17° |
| 2026-05-05 08:43 | 59.79827 | 30.26557 | 83 ft | 3 kts | 54° |
| 2026-05-05 08:43 | 59.79822 | 30.26608 | 81 ft | 4 kts | 106° |
| 2026-05-05 08:44 | 59.79815 | 30.26651 | 83 ft | 3 kts | 107° |
| 2026-05-05 08:44 | 59.79815 | 30.26656 | 83 ft | 0 kts | 107° |